sensor_id;sensor_type;location;lat;lon;timestamp;P1;durP1;ratioP1;P2;durP2;ratioP2
66542;SDS011;53395;37.360;-122.046;2023-05-10T00:00:33;1.90;;;0.50;;
66542;SDS011;53395;37.360;-122.046;2023-05-10T00:03:18;2.10;;;0.50;;
66542;SDS011;53395;37.360;-122.046;2023-05-10T00:06:02;3.53;;;0.50;;
66542;SDS011;53395;37.360;-122.046;2023-05-10T00:08:47;2.20;;;0.50;;
66542;SDS011;53395;37.360;-122.046;2023-05-10T00:11:31;3.38;;;0.63;;
66542;SDS011;53395;37.360;-122.046;2023-05-10T00:14:16;2.25;;;0.60;;
66542;SDS011;53395;37.360;-122.046;2023-05-10T00:17:01;2.47;;;0.60;;
66542;SDS011;53395;37.360;-122.046;2023-05-10T00:19:45;2.45;;;0.40;;
66542;SDS011;53395;37.360;-122.046;2023-05-10T00:22:30;1.63;;;0.30;;
66542;SDS011;53395;37.360;-122.046;2023-05-10T00:25:15;1.10;;;0.30;;
66542;SDS011;53395;37.360;-122.046;2023-05-10T00:27:59;3.03;;;0.45;;
66542;SDS011;53395;37.360;-122.046;2023-05-10T00:30:45;4.63;;;0.50;;
66542;SDS011;53395;37.360;-122.046;2023-05-10T00:33:29;2.83;;;0.40;;
66542;SDS011;53395;37.360;-122.046;2023-05-10T00:36:14;1.70;;;0.30;;
66542;SDS011;53395;37.360;-122.046;2023-05-10T00:38:59;1.20;;;0.35;;
66542;SDS011;53395;37.360;-122.046;2023-05-10T00:41:43;1.45;;;0.50;;
66542;SDS011;53395;37.360;-122.046;2023-05-10T00:44:28;2.10;;;0.50;;
66542;SDS011;53395;37.360;-122.046;2023-05-10T00:47:12;1.83;;;0.30;;
66542;SDS011;53395;37.360;-122.046;2023-05-10T00:49:57;1.55;;;0.57;;
66542;SDS011;53395;37.360;-122.046;2023-05-10T00:52:41;1.33;;;0.50;;
66542;SDS011;53395;37.360;-122.046;2023-05-10T00:58:11;2.80;;;0.40;;
66542;SDS011;53395;37.360;-122.046;2023-05-10T01:00:56;3.72;;;0.50;;
66542;SDS011;53395;37.360;-122.046;2023-05-10T01:03:41;1.35;;;0.20;;
66542;SDS011;53395;37.360;-122.046;2023-05-10T01:06:25;0.85;;;0.22;;
66542;SDS011;53395;37.360;-122.046;2023-05-10T01:09:10;2.03;;;0.43;;
66542;SDS011;53395;37.360;-122.046;2023-05-10T01:11:55;2.20;;;0.45;;
66542;SDS011;53395;37.360;-122.046;2023-05-10T01:17:25;1.58;;;0.47;;
66542;SDS011;53395;37.360;-122.046;2023-05-10T01:20:10;1.20;;;0.50;;
66542;SDS011;53395;37.360;-122.046;2023-05-10T01:31:30;0.93;;;0.30;;
66542;SDS011;53395;37.360;-122.046;2023-05-10T01:34:16;2.33;;;0.55;;
66542;SDS011;53395;37.360;-122.046;2023-05-10T01:37:07;2.83;;;0.55;;
66542;SDS011;53395;37.360;-122.046;2023-05-10T01:40:11;2.30;;;0.45;;
66542;SDS011;53395;37.360;-122.046;2023-05-10T01:43:01;3.08;;;0.30;;
66542;SDS011;53395;37.360;-122.046;2023-05-10T01:45:49;3.97;;;0.40;;
66542;SDS011;53395;37.360;-122.046;2023-05-10T01:48:35;1.52;;;0.40;;
66542;SDS011;53395;37.360;-122.046;2023-05-10T01:51:26;2.67;;;0.50;;
66542;SDS011;53395;37.360;-122.046;2023-05-10T01:54:11;1.55;;;0.40;;
66542;SDS011;53395;37.360;-122.046;2023-05-10T01:57:02;2.15;;;0.47;;
66542;SDS011;53395;37.360;-122.046;2023-05-10T01:59:49;3.50;;;0.40;;
66542;SDS011;53395;37.360;-122.046;2023-05-10T02:02:37;1.92;;;0.57;;
66542;SDS011;53395;37.360;-122.046;2023-05-10T02:05:23;1.92;;;0.47;;
66542;SDS011;53395;37.360;-122.046;2023-05-10T02:08:08;2.17;;;0.85;;
66542;SDS011;53395;37.360;-122.046;2023-05-10T02:10:54;1.45;;;0.30;;
66542;SDS011;53395;37.360;-122.046;2023-05-10T02:13:40;1.25;;;0.40;;
66542;SDS011;53395;37.360;-122.046;2023-05-10T02:16:26;2.13;;;0.40;;
66542;SDS011;53395;37.360;-122.046;2023-05-10T02:19:11;1.55;;;0.30;;
66542;SDS011;53395;37.360;-122.046;2023-05-10T02:21:58;2.25;;;0.52;;
66542;SDS011;53395;37.360;-122.046;2023-05-10T02:24:43;2.22;;;0.35;;
66542;SDS011;53395;37.360;-122.046;2023-05-10T02:27:28;0.98;;;0.30;;
66542;SDS011;53395;37.360;-122.046;2023-05-10T02:30:14;1.27;;;0.30;;
66542;SDS011;53395;37.360;-122.046;2023-05-10T02:35:43;0.73;;;0.32;;
66542;SDS011;53395;37.360;-122.046;2023-05-10T02:38:28;2.05;;;0.40;;
66542;SDS011;53395;37.360;-122.046;2023-05-10T02:41:12;3.78;;;0.55;;
66542;SDS011;53395;37.360;-122.046;2023-05-10T02:43:57;1.23;;;0.30;;
66542;SDS011;53395;37.360;-122.046;2023-05-10T02:46:44;2.15;;;0.30;;
66542;SDS011;53395;37.360;-122.046;2023-05-10T02:49:29;1.60;;;0.40;;
66542;SDS011;53395;37.360;-122.046;2023-05-10T02:52:15;2.10;;;0.43;;
66542;SDS011;53395;37.360;-122.046;2023-05-10T02:55:01;1.15;;;0.25;;
66542;SDS011;53395;37.360;-122.046;2023-05-10T02:57:55;2.15;;;0.45;;
66542;SDS011;53395;37.360;-122.046;2023-05-10T03:00:40;2.25;;;0.22;;
66542;SDS011;53395;37.360;-122.046;2023-05-10T03:03:25;1.55;;;0.30;;
66542;SDS011;53395;37.360;-122.046;2023-05-10T03:06:09;0.88;;;0.32;;
66542;SDS011;53395;37.360;-122.046;2023-05-10T03:08:53;1.60;;;0.40;;
66542;SDS011;53395;37.360;-122.046;2023-05-10T03:17:29;0.47;;;0.20;;
66542;SDS011;53395;37.360;-122.046;2023-05-10T03:20:20;2.40;;;0.40;;
66542;SDS011;53395;37.360;-122.046;2023-05-10T03:26:02;1.40;;;0.35;;
66542;SDS011;53395;37.360;-122.046;2023-05-10T03:28:47;1.42;;;0.30;;
66542;SDS011;53395;37.360;-122.046;2023-05-10T03:31:32;2.55;;;0.50;;
66542;SDS011;53395;37.360;-122.046;2023-05-10T03:34:22;2.15;;;0.40;;
66542;SDS011;53395;37.360;-122.046;2023-05-10T03:37:07;1.02;;;0.30;;
66542;SDS011;53395;37.360;-122.046;2023-05-10T03:39:51;1.35;;;0.50;;
66542;SDS011;53395;37.360;-122.046;2023-05-10T03:42:36;1.20;;;0.40;;
66542;SDS011;53395;37.360;-122.046;2023-05-10T03:45:20;2.08;;;0.32;;
66542;SDS011;53395;37.360;-122.046;2023-05-10T03:48:05;2.50;;;0.43;;
66542;SDS011;53395;37.360;-122.046;2023-05-10T03:50:50;1.27;;;0.30;;
66542;SDS011;53395;37.360;-122.046;2023-05-10T03:53:34;1.48;;;0.30;;
66542;SDS011;53395;37.360;-122.046;2023-05-10T03:56:19;1.63;;;0.25;;
66542;SDS011;53395;37.360;-122.046;2023-05-10T03:59:04;1.60;;;0.38;;
66542;SDS011;53395;37.360;-122.046;2023-05-10T04:01:51;3.08;;;0.40;;
66542;SDS011;53395;37.360;-122.046;2023-05-10T04:04:36;1.05;;;0.28;;
66542;SDS011;53395;37.360;-122.046;2023-05-10T04:07:20;2.53;;;0.40;;
66542;SDS011;53395;37.360;-122.046;2023-05-10T04:10:05;1.83;;;0.40;;
66542;SDS011;53395;37.360;-122.046;2023-05-10T04:12:49;1.88;;;0.50;;
66542;SDS011;53395;37.360;-122.046;2023-05-10T04:15:34;2.20;;;0.40;;
66542;SDS011;53395;37.360;-122.046;2023-05-10T04:18:20;3.42;;;0.30;;
66542;SDS011;53395;37.360;-122.046;2023-05-10T04:21:10;3.28;;;0.43;;
66542;SDS011;53395;37.360;-122.046;2023-05-10T04:23:55;3.20;;;0.60;;
66542;SDS011;53395;37.360;-122.046;2023-05-10T04:26:39;2.58;;;0.38;;
66542;SDS011;53395;37.360;-122.046;2023-05-10T04:29:23;1.52;;;0.40;;
66542;SDS011;53395;37.360;-122.046;2023-05-10T04:32:08;1.70;;;0.35;;
66542;SDS011;53395;37.360;-122.046;2023-05-10T04:34:53;4.40;;;0.65;;
66542;SDS011;53395;37.360;-122.046;2023-05-10T04:37:38;2.25;;;0.43;;
66542;SDS011;53395;37.360;-122.046;2023-05-10T04:40:22;1.50;;;0.55;;
66542;SDS011;53395;37.360;-122.046;2023-05-10T04:43:06;3.75;;;0.60;;
66542;SDS011;53395;37.360;-122.046;2023-05-10T04:45:51;2.50;;;0.77;;
66542;SDS011;53395;37.360;-122.046;2023-05-10T04:48:35;1.92;;;0.40;;
66542;SDS011;53395;37.360;-122.046;2023-05-10T04:51:20;2.92;;;0.73;;
66542;SDS011;53395;37.360;-122.046;2023-05-10T04:54:04;3.13;;;0.50;;
66542;SDS011;53395;37.360;-122.046;2023-05-10T04:56:48;4.45;;;0.40;;
66542;SDS011;53395;37.360;-122.046;2023-05-10T04:59:33;3.25;;;0.43;;
66542;SDS011;53395;37.360;-122.046;2023-05-10T05:02:19;4.78;;;0.65;;
66542;SDS011;53395;37.360;-122.046;2023-05-10T05:05:04;3.92;;;0.40;;
66542;SDS011;53395;37.360;-122.046;2023-05-10T05:07:48;2.40;;;0.70;;
66542;SDS011;53395;37.360;-122.046;2023-05-10T05:10:33;3.53;;;0.55;;
66542;SDS011;53395;37.360;-122.046;2023-05-10T05:13:18;2.53;;;0.30;;
66542;SDS011;53395;37.360;-122.046;2023-05-10T05:16:03;2.55;;;0.40;;
66542;SDS011;53395;37.360;-122.046;2023-05-10T05:18:48;2.92;;;0.50;;
66542;SDS011;53395;37.360;-122.046;2023-05-10T05:21:32;1.15;;;0.43;;
66542;SDS011;53395;37.360;-122.046;2023-05-10T05:24:16;2.20;;;0.30;;
66542;SDS011;53395;37.360;-122.046;2023-05-10T05:27:01;2.65;;;0.60;;
66542;SDS011;53395;37.360;-122.046;2023-05-10T05:29:45;2.65;;;0.60;;
66542;SDS011;53395;37.360;-122.046;2023-05-10T05:32:30;5.90;;;0.47;;
66542;SDS011;53395;37.360;-122.046;2023-05-10T05:35:14;1.95;;;0.38;;
66542;SDS011;53395;37.360;-122.046;2023-05-10T05:37:59;1.58;;;0.40;;
66542;SDS011;53395;37.360;-122.046;2023-05-10T05:40:43;3.45;;;0.60;;
66542;SDS011;53395;37.360;-122.046;2023-05-10T05:43:29;1.27;;;0.47;;
66542;SDS011;53395;37.360;-122.046;2023-05-10T05:46:14;2.83;;;0.60;;
66542;SDS011;53395;37.360;-122.046;2023-05-10T05:48:58;2.55;;;0.45;;
66542;SDS011;53395;37.360;-122.046;2023-05-10T05:51:42;1.63;;;0.52;;
66542;SDS011;53395;37.360;-122.046;2023-05-10T05:54:27;2.97;;;0.50;;
66542;SDS011;53395;37.360;-122.046;2023-05-10T05:57:11;3.47;;;0.75;;
66542;SDS011;53395;37.360;-122.046;2023-05-10T05:59:56;2.15;;;0.50;;
66542;SDS011;53395;37.360;-122.046;2023-05-10T06:02:40;2.55;;;0.50;;
66542;SDS011;53395;37.360;-122.046;2023-05-10T06:05:25;2.45;;;0.40;;
66542;SDS011;53395;37.360;-122.046;2023-05-10T06:08:09;1.88;;;0.40;;
66542;SDS011;53395;37.360;-122.046;2023-05-10T06:10:54;2.03;;;0.43;;
66542;SDS011;53395;37.360;-122.046;2023-05-10T06:13:38;3.33;;;0.73;;
66542;SDS011;53395;37.360;-122.046;2023-05-10T06:16:23;5.70;;;0.60;;
66542;SDS011;53395;37.360;-122.046;2023-05-10T06:19:07;2.53;;;0.60;;
66542;SDS011;53395;37.360;-122.046;2023-05-10T06:21:52;3.22;;;0.55;;
66542;SDS011;53395;37.360;-122.046;2023-05-10T06:24:36;2.08;;;0.40;;
66542;SDS011;53395;37.360;-122.046;2023-05-10T06:27:20;1.88;;;0.50;;
66542;SDS011;53395;37.360;-122.046;2023-05-10T06:30:07;2.83;;;0.60;;
66542;SDS011;53395;37.360;-122.046;2023-05-10T06:32:52;4.50;;;0.50;;
66542;SDS011;53395;37.360;-122.046;2023-05-10T06:35:37;3.05;;;0.60;;
66542;SDS011;53395;37.360;-122.046;2023-05-10T06:38:23;2.35;;;0.77;;
66542;SDS011;53395;37.360;-122.046;2023-05-10T06:41:07;2.75;;;0.57;;
66542;SDS011;53395;37.360;-122.046;2023-05-10T06:43:54;1.88;;;0.50;;
66542;SDS011;53395;37.360;-122.046;2023-05-10T06:46:38;1.88;;;0.40;;
66542;SDS011;53395;37.360;-122.046;2023-05-10T06:49:23;1.48;;;0.40;;
66542;SDS011;53395;37.360;-122.046;2023-05-10T06:52:08;1.52;;;0.40;;
66542;SDS011;53395;37.360;-122.046;2023-05-10T06:54:52;2.92;;;0.50;;
66542;SDS011;53395;37.360;-122.046;2023-05-10T06:57:37;2.63;;;0.50;;
66542;SDS011;53395;37.360;-122.046;2023-05-10T07:00:21;3.42;;;0.60;;
66542;SDS011;53395;37.360;-122.046;2023-05-10T07:03:06;3.65;;;0.70;;
66542;SDS011;53395;37.360;-122.046;2023-05-10T07:05:51;1.45;;;0.40;;
66542;SDS011;53395;37.360;-122.046;2023-05-10T07:08:35;0.60;;;0.40;;
66542;SDS011;53395;37.360;-122.046;2023-05-10T07:11:20;4.00;;;0.55;;
66542;SDS011;53395;37.360;-122.046;2023-05-10T07:14:04;1.95;;;0.50;;
66542;SDS011;53395;37.360;-122.046;2023-05-10T07:16:48;2.55;;;0.60;;
66542;SDS011;53395;37.360;-122.046;2023-05-10T07:19:33;3.45;;;0.60;;
66542;SDS011;53395;37.360;-122.046;2023-05-10T07:22:18;1.77;;;0.70;;
66542;SDS011;53395;37.360;-122.046;2023-05-10T07:25:02;1.42;;;0.65;;
66542;SDS011;53395;37.360;-122.046;2023-05-10T07:27:47;2.58;;;0.57;;
66542;SDS011;53395;37.360;-122.046;2023-05-10T07:30:32;4.03;;;0.70;;
66542;SDS011;53395;37.360;-122.046;2023-05-10T07:33:17;2.05;;;0.52;;
66542;SDS011;53395;37.360;-122.046;2023-05-10T07:36:01;3.90;;;0.50;;
66542;SDS011;53395;37.360;-122.046;2023-05-10T07:38:46;1.30;;;0.50;;
66542;SDS011;53395;37.360;-122.046;2023-05-10T07:41:31;2.38;;;0.55;;
66542;SDS011;53395;37.360;-122.046;2023-05-10T07:44:16;3.88;;;0.70;;
66542;SDS011;53395;37.360;-122.046;2023-05-10T07:47:03;1.35;;;0.50;;
66542;SDS011;53395;37.360;-122.046;2023-05-10T07:49:47;3.28;;;0.60;;
66542;SDS011;53395;37.360;-122.046;2023-05-10T07:52:32;2.42;;;0.47;;
66542;SDS011;53395;37.360;-122.046;2023-05-10T07:55:17;2.08;;;0.60;;
66542;SDS011;53395;37.360;-122.046;2023-05-10T07:58:02;4.05;;;0.50;;
66542;SDS011;53395;37.360;-122.046;2023-05-10T08:00:47;4.30;;;0.40;;
66542;SDS011;53395;37.360;-122.046;2023-05-10T08:03:32;3.22;;;0.73;;
66542;SDS011;53395;37.360;-122.046;2023-05-10T08:06:17;2.83;;;0.63;;
66542;SDS011;53395;37.360;-122.046;2023-05-10T08:09:02;4.05;;;0.80;;
66542;SDS011;53395;37.360;-122.046;2023-05-10T08:11:46;1.05;;;0.35;;
66542;SDS011;53395;37.360;-122.046;2023-05-10T08:14:31;1.08;;;0.50;;
66542;SDS011;53395;37.360;-122.046;2023-05-10T08:17:15;3.55;;;0.60;;
66542;SDS011;53395;37.360;-122.046;2023-05-10T08:20:00;4.38;;;0.88;;
66542;SDS011;53395;37.360;-122.046;2023-05-10T08:22:45;1.83;;;0.45;;
66542;SDS011;53395;37.360;-122.046;2023-05-10T08:25:29;1.85;;;0.43;;
66542;SDS011;53395;37.360;-122.046;2023-05-10T08:28:14;6.68;;;0.80;;
66542;SDS011;53395;37.360;-122.046;2023-05-10T08:30:58;1.60;;;0.50;;
66542;SDS011;53395;37.360;-122.046;2023-05-10T08:33:43;2.13;;;0.50;;
66542;SDS011;53395;37.360;-122.046;2023-05-10T08:36:27;3.17;;;0.70;;
66542;SDS011;53395;37.360;-122.046;2023-05-10T08:39:12;1.75;;;0.43;;
66542;SDS011;53395;37.360;-122.046;2023-05-10T08:41:57;1.63;;;0.50;;
66542;SDS011;53395;37.360;-122.046;2023-05-10T08:44:45;4.38;;;0.88;;
66542;SDS011;53395;37.360;-122.046;2023-05-10T08:47:31;2.58;;;0.70;;
66542;SDS011;53395;37.360;-122.046;2023-05-10T08:50:16;1.73;;;0.60;;
66542;SDS011;53395;37.360;-122.046;2023-05-10T08:53:03;1.75;;;0.60;;
66542;SDS011;53395;37.360;-122.046;2023-05-10T08:55:48;3.33;;;0.73;;
66542;SDS011;53395;37.360;-122.046;2023-05-10T08:58:32;1.52;;;0.50;;
66542;SDS011;53395;37.360;-122.046;2023-05-10T09:01:18;1.67;;;0.50;;
66542;SDS011;53395;37.360;-122.046;2023-05-10T09:04:02;1.90;;;0.55;;
66542;SDS011;53395;37.360;-122.046;2023-05-10T09:06:48;2.45;;;0.65;;
66542;SDS011;53395;37.360;-122.046;2023-05-10T09:09:32;1.95;;;0.45;;
66542;SDS011;53395;37.360;-122.046;2023-05-10T09:12:17;4.22;;;0.68;;
66542;SDS011;53395;37.360;-122.046;2023-05-10T09:15:02;1.58;;;0.50;;
66542;SDS011;53395;37.360;-122.046;2023-05-10T09:17:47;2.33;;;0.60;;
66542;SDS011;53395;37.360;-122.046;2023-05-10T09:20:33;3.95;;;0.60;;
66542;SDS011;53395;37.360;-122.046;2023-05-10T09:23:17;2.38;;;0.50;;
66542;SDS011;53395;37.360;-122.046;2023-05-10T09:26:02;2.28;;;0.50;;
66542;SDS011;53395;37.360;-122.046;2023-05-10T09:31:45;2.58;;;0.60;;
66542;SDS011;53395;37.360;-122.046;2023-05-10T09:34:31;1.90;;;0.45;;
66542;SDS011;53395;37.360;-122.046;2023-05-10T09:40:00;1.77;;;0.50;;
66542;SDS011;53395;37.360;-122.046;2023-05-10T09:42:52;2.83;;;0.68;;
66542;SDS011;53395;37.360;-122.046;2023-05-10T09:45:38;2.60;;;0.50;;
66542;SDS011;53395;37.360;-122.046;2023-05-10T09:48:23;2.60;;;0.50;;
66542;SDS011;53395;37.360;-122.046;2023-05-10T09:51:08;2.58;;;0.63;;
66542;SDS011;53395;37.360;-122.046;2023-05-10T09:54:11;2.03;;;0.50;;
66542;SDS011;53395;37.360;-122.046;2023-05-10T09:56:57;2.03;;;0.43;;
66542;SDS011;53395;37.360;-122.046;2023-05-10T09:59:44;3.13;;;0.60;;
66542;SDS011;53395;37.360;-122.046;2023-05-10T10:02:29;2.13;;;0.52;;
66542;SDS011;53395;37.360;-122.046;2023-05-10T10:05:13;2.63;;;0.80;;
66542;SDS011;53395;37.360;-122.046;2023-05-10T10:07:58;4.28;;;0.65;;
66542;SDS011;53395;37.360;-122.046;2023-05-10T10:10:43;1.63;;;0.50;;
66542;SDS011;53395;37.360;-122.046;2023-05-10T10:13:30;2.72;;;0.60;;
66542;SDS011;53395;37.360;-122.046;2023-05-10T10:16:15;1.73;;;0.60;;
66542;SDS011;53395;37.360;-122.046;2023-05-10T10:19:00;1.58;;;0.40;;
66542;SDS011;53395;37.360;-122.046;2023-05-10T10:21:44;1.75;;;0.40;;
66542;SDS011;53395;37.360;-122.046;2023-05-10T10:24:29;2.65;;;0.68;;
66542;SDS011;53395;37.360;-122.046;2023-05-10T10:27:16;3.70;;;0.50;;
66542;SDS011;53395;37.360;-122.046;2023-05-10T10:30:09;1.15;;;0.30;;
66542;SDS011;53395;37.360;-122.046;2023-05-10T10:36:00;2.53;;;0.40;;
66542;SDS011;53395;37.360;-122.046;2023-05-10T10:52:45;2.95;;;0.47;;
66542;SDS011;53395;37.360;-122.046;2023-05-10T10:55:32;2.15;;;0.50;;
66542;SDS011;53395;37.360;-122.046;2023-05-10T10:58:30;1.73;;;0.40;;
66542;SDS011;53395;37.360;-122.046;2023-05-10T11:01:17;2.30;;;0.60;;
66542;SDS011;53395;37.360;-122.046;2023-05-10T11:06:47;1.77;;;0.45;;
66542;SDS011;53395;37.360;-122.046;2023-05-10T11:09:36;0.80;;;0.30;;
66542;SDS011;53395;37.360;-122.046;2023-05-10T11:12:23;2.50;;;0.45;;
66542;SDS011;53395;37.360;-122.046;2023-05-10T11:15:08;3.22;;;0.60;;
66542;SDS011;53395;37.360;-122.046;2023-05-10T11:17:53;1.80;;;0.45;;
66542;SDS011;53395;37.360;-122.046;2023-05-10T11:20:38;2.28;;;0.70;;
66542;SDS011;53395;37.360;-122.046;2023-05-10T11:23:23;3.90;;;0.40;;
66542;SDS011;53395;37.360;-122.046;2023-05-10T11:26:08;2.83;;;0.80;;
66542;SDS011;53395;37.360;-122.046;2023-05-10T11:28:55;6.05;;;0.60;;
66542;SDS011;53395;37.360;-122.046;2023-05-10T11:31:46;2.53;;;0.50;;
66542;SDS011;53395;37.360;-122.046;2023-05-10T11:34:31;2.38;;;0.50;;
66542;SDS011;53395;37.360;-122.046;2023-05-10T11:37:18;1.83;;;0.70;;
66542;SDS011;53395;37.360;-122.046;2023-05-10T11:40:03;1.95;;;0.50;;
66542;SDS011;53395;37.360;-122.046;2023-05-10T11:42:48;3.65;;;0.50;;
66542;SDS011;53395;37.360;-122.046;2023-05-10T11:45:32;1.63;;;0.60;;
66542;SDS011;53395;37.360;-122.046;2023-05-10T11:48:17;2.25;;;0.40;;
66542;SDS011;53395;37.360;-122.046;2023-05-10T11:51:06;2.13;;;0.52;;
66542;SDS011;53395;37.360;-122.046;2023-05-10T11:53:52;1.55;;;0.50;;
66542;SDS011;53395;37.360;-122.046;2023-05-10T11:56:38;3.05;;;0.57;;
66542;SDS011;53395;37.360;-122.046;2023-05-10T11:59:22;1.48;;;0.52;;
66542;SDS011;53395;37.360;-122.046;2023-05-10T12:02:07;1.05;;;0.40;;
66542;SDS011;53395;37.360;-122.046;2023-05-10T12:04:51;5.72;;;0.68;;
66542;SDS011;53395;37.360;-122.046;2023-05-10T12:07:36;2.53;;;0.50;;
66542;SDS011;53395;37.360;-122.046;2023-05-10T12:10:24;3.33;;;0.70;;
66542;SDS011;53395;37.360;-122.046;2023-05-10T12:13:12;4.38;;;0.60;;
66542;SDS011;53395;37.360;-122.046;2023-05-10T12:15:59;3.03;;;0.70;;
66542;SDS011;53395;37.360;-122.046;2023-05-10T12:18:44;1.77;;;0.50;;
66542;SDS011;53395;37.360;-122.046;2023-05-10T12:21:29;1.63;;;0.52;;
66542;SDS011;53395;37.360;-122.046;2023-05-10T12:24:14;3.85;;;0.93;;
66542;SDS011;53395;37.360;-122.046;2023-05-10T12:27:04;3.38;;;0.60;;
66542;SDS011;53395;37.360;-122.046;2023-05-10T12:29:49;2.50;;;0.40;;
66542;SDS011;53395;37.360;-122.046;2023-05-10T12:32:40;2.10;;;0.52;;
66542;SDS011;53395;37.360;-122.046;2023-05-10T12:35:24;2.03;;;0.50;;
66542;SDS011;53395;37.360;-122.046;2023-05-10T12:38:27;1.52;;;0.50;;
66542;SDS011;53395;37.360;-122.046;2023-05-10T12:41:14;1.90;;;0.52;;
66542;SDS011;53395;37.360;-122.046;2023-05-10T12:43:59;1.75;;;0.50;;
66542;SDS011;53395;37.360;-122.046;2023-05-10T12:46:43;1.67;;;0.50;;
66542;SDS011;53395;37.360;-122.046;2023-05-10T12:49:28;5.10;;;0.70;;
66542;SDS011;53395;37.360;-122.046;2023-05-10T12:52:13;1.58;;;0.50;;
66542;SDS011;53395;37.360;-122.046;2023-05-10T12:54:58;1.65;;;0.50;;
66542;SDS011;53395;37.360;-122.046;2023-05-10T12:57:43;1.95;;;0.80;;
66542;SDS011;53395;37.360;-122.046;2023-05-10T13:00:27;2.58;;;0.65;;
66542;SDS011;53395;37.360;-122.046;2023-05-10T13:03:11;2.25;;;0.60;;
66542;SDS011;53395;37.360;-122.046;2023-05-10T13:05:56;3.42;;;0.50;;
66542;SDS011;53395;37.360;-122.046;2023-05-10T13:08:40;2.22;;;0.75;;
66542;SDS011;53395;37.360;-122.046;2023-05-10T13:11:25;3.78;;;0.88;;
66542;SDS011;53395;37.360;-122.046;2023-05-10T13:14:09;4.88;;;0.90;;
66542;SDS011;53395;37.360;-122.046;2023-05-10T13:16:54;6.15;;;1.20;;
66542;SDS011;53395;37.360;-122.046;2023-05-10T13:19:39;6.05;;;0.85;;
66542;SDS011;53395;37.360;-122.046;2023-05-10T13:22:23;5.90;;;1.17;;
66542;SDS011;53395;37.360;-122.046;2023-05-10T13:25:08;5.05;;;1.38;;
66542;SDS011;53395;37.360;-122.046;2023-05-10T13:27:53;5.63;;;1.60;;
66542;SDS011;53395;37.360;-122.046;2023-05-10T13:30:37;3.80;;;0.93;;
66542;SDS011;53395;37.360;-122.046;2023-05-10T13:33:21;5.30;;;1.20;;
66542;SDS011;53395;37.360;-122.046;2023-05-10T13:36:06;6.97;;;1.33;;
66542;SDS011;53395;37.360;-122.046;2023-05-10T13:38:50;5.00;;;1.20;;
66542;SDS011;53395;37.360;-122.046;2023-05-10T13:41:34;7.03;;;1.20;;
66542;SDS011;53395;37.360;-122.046;2023-05-10T13:44:20;6.05;;;1.05;;
66542;SDS011;53395;37.360;-122.046;2023-05-10T13:47:05;7.32;;;1.23;;
66542;SDS011;53395;37.360;-122.046;2023-05-10T13:49:49;9.18;;;1.40;;
66542;SDS011;53395;37.360;-122.046;2023-05-10T13:52:34;7.65;;;1.70;;
66542;SDS011;53395;37.360;-122.046;2023-05-10T13:55:19;6.53;;;1.33;;
66542;SDS011;53395;37.360;-122.046;2023-05-10T13:58:03;5.80;;;1.30;;
66542;SDS011;53395;37.360;-122.046;2023-05-10T14:00:48;2.80;;;1.10;;
66542;SDS011;53395;37.360;-122.046;2023-05-10T14:03:32;5.88;;;0.95;;
66542;SDS011;53395;37.360;-122.046;2023-05-10T14:06:16;4.97;;;0.90;;
66542;SDS011;53395;37.360;-122.046;2023-05-10T14:09:01;15.95;;;1.30;;
66542;SDS011;53395;37.360;-122.046;2023-05-10T14:11:46;5.22;;;0.90;;
66542;SDS011;53395;37.360;-122.046;2023-05-10T14:14:30;3.33;;;0.77;;
66542;SDS011;53395;37.360;-122.046;2023-05-10T14:17:15;2.90;;;0.88;;
66542;SDS011;53395;37.360;-122.046;2023-05-10T14:19:59;6.97;;;0.93;;
66542;SDS011;53395;37.360;-122.046;2023-05-10T14:22:44;6.30;;;1.42;;
66542;SDS011;53395;37.360;-122.046;2023-05-10T14:25:28;4.53;;;0.90;;
66542;SDS011;53395;37.360;-122.046;2023-05-10T14:28:13;6.07;;;0.93;;
66542;SDS011;53395;37.360;-122.046;2023-05-10T14:30:58;7.45;;;1.20;;
66542;SDS011;53395;37.360;-122.046;2023-05-10T14:33:42;5.05;;;1.05;;
66542;SDS011;53395;37.360;-122.046;2023-05-10T14:36:27;6.70;;;0.88;;
66542;SDS011;53395;37.360;-122.046;2023-05-10T14:39:11;3.58;;;0.85;;
66542;SDS011;53395;37.360;-122.046;2023-05-10T14:41:57;6.63;;;1.00;;
66542;SDS011;53395;37.360;-122.046;2023-05-10T14:44:42;7.68;;;0.90;;
66542;SDS011;53395;37.360;-122.046;2023-05-10T14:47:26;6.03;;;0.80;;
66542;SDS011;53395;37.360;-122.046;2023-05-10T14:50:11;7.22;;;0.82;;
66542;SDS011;53395;37.360;-122.046;2023-05-10T14:52:55;9.13;;;0.93;;
66542;SDS011;53395;37.360;-122.046;2023-05-10T14:55:40;7.53;;;1.08;;
66542;SDS011;53395;37.360;-122.046;2023-05-10T14:58:25;5.00;;;1.38;;
66542;SDS011;53395;37.360;-122.046;2023-05-10T15:01:10;5.68;;;1.00;;
66542;SDS011;53395;37.360;-122.046;2023-05-10T15:03:55;6.93;;;1.10;;
66542;SDS011;53395;37.360;-122.046;2023-05-10T15:06:39;7.15;;;1.75;;
66542;SDS011;53395;37.360;-122.046;2023-05-10T15:09:24;5.35;;;1.10;;
66542;SDS011;53395;37.360;-122.046;2023-05-10T15:12:08;9.88;;;1.35;;
66542;SDS011;53395;37.360;-122.046;2023-05-10T15:14:53;4.25;;;0.90;;
66542;SDS011;53395;37.360;-122.046;2023-05-10T15:17:37;7.30;;;0.90;;
66542;SDS011;53395;37.360;-122.046;2023-05-10T15:20:21;7.50;;;1.02;;
66542;SDS011;53395;37.360;-122.046;2023-05-10T15:23:06;2.00;;;0.82;;
66542;SDS011;53395;37.360;-122.046;2023-05-10T15:25:51;4.15;;;0.73;;
66542;SDS011;53395;37.360;-122.046;2023-05-10T15:28:39;4.47;;;0.73;;
66542;SDS011;53395;37.360;-122.046;2023-05-10T15:31:24;6.28;;;0.80;;
66542;SDS011;53395;37.360;-122.046;2023-05-10T15:34:08;8.18;;;1.27;;
66542;SDS011;53395;37.360;-122.046;2023-05-10T15:36:53;5.10;;;1.00;;
66542;SDS011;53395;37.360;-122.046;2023-05-10T15:39:37;3.25;;;0.52;;
66542;SDS011;53395;37.360;-122.046;2023-05-10T15:42:21;7.50;;;0.80;;
66542;SDS011;53395;37.360;-122.046;2023-05-10T15:45:06;4.80;;;1.10;;
66542;SDS011;53395;37.360;-122.046;2023-05-10T15:47:50;2.67;;;0.70;;
66542;SDS011;53395;37.360;-122.046;2023-05-10T15:50:35;2.70;;;0.85;;
66542;SDS011;53395;37.360;-122.046;2023-05-10T15:53:20;4.35;;;0.65;;
66542;SDS011;53395;37.360;-122.046;2023-05-10T15:56:04;6.15;;;0.90;;
66542;SDS011;53395;37.360;-122.046;2023-05-10T15:58:49;2.50;;;0.70;;
66542;SDS011;53395;37.360;-122.046;2023-05-10T16:01:33;4.75;;;0.90;;
66542;SDS011;53395;37.360;-122.046;2023-05-10T16:04:18;3.15;;;0.65;;
66542;SDS011;53395;37.360;-122.046;2023-05-10T16:07:03;4.57;;;0.75;;
66542;SDS011;53395;37.360;-122.046;2023-05-10T16:09:47;2.83;;;0.90;;
66542;SDS011;53395;37.360;-122.046;2023-05-10T16:12:32;3.33;;;0.80;;
66542;SDS011;53395;37.360;-122.046;2023-05-10T16:15:16;3.75;;;0.88;;
66542;SDS011;53395;37.360;-122.046;2023-05-10T16:18:01;7.30;;;0.80;;
66542;SDS011;53395;37.360;-122.046;2023-05-10T16:20:45;2.53;;;0.75;;
66542;SDS011;53395;37.360;-122.046;2023-05-10T16:23:30;2.33;;;0.63;;
66542;SDS011;53395;37.360;-122.046;2023-05-10T16:26:15;3.03;;;0.73;;
66542;SDS011;53395;37.360;-122.046;2023-05-10T16:28:59;3.15;;;0.90;;
66542;SDS011;53395;37.360;-122.046;2023-05-10T16:31:44;2.53;;;0.68;;
66542;SDS011;53395;37.360;-122.046;2023-05-10T16:34:29;5.13;;;0.70;;
66542;SDS011;53395;37.360;-122.046;2023-05-10T16:37:14;3.03;;;0.70;;
66542;SDS011;53395;37.360;-122.046;2023-05-10T16:39:58;3.65;;;0.85;;
66542;SDS011;53395;37.360;-122.046;2023-05-10T16:42:42;6.47;;;0.60;;